General Aviation Weather

Text Reports

Enter one or more of the following location identifiers separated by a space:

Zip Code, Four-Character ICAO or Three-Character IATA airport codes.

METAR - Aviation Routine Weather Report
KONL - O'Neill, Nebraska
Updated at 4:55 AM GMT on December 10, 2016 (10:55 PM CST):
METAR KONL 100455Z AUTO 04008KT 10SM -SN OVC038 M11/M13 A3042 RMK AO2 T11131126
TAF - Terminal Area Forecast
KONL - O'Neill, Nebraska
Updated at 4:55 AM GMT on December 10, 2016 (10:55 PM CST):
No TAF is currently available for this location.
Decoded:
No decoded TAF is available.
PIREP - Pilot Weather Report
KONL - O'Neill, Nebraska
Updated at 4:55 AM GMT on December 10, 2016 (10:55 PM CST):
No PIREP is currently available for this location.
AIRMET - Airmens Meteorological Information
KONL - O'Neill, Nebraska
Updated at 4:55 AM GMT on December 10, 2016 (10:55 PM CST):
No AIRMET is currently available for this location.
SIGMET - Significant Meteorological Information
KONL - O'Neill, Nebraska
Updated at 4:55 AM GMT on December 10, 2016 (10:55 PM CST):
No SIGMET is currently available for this location.
NOTAM - Notice to Airmen
KONL - O'Neill, Nebraska
Updated at 4:55 AM GMT on December 10, 2016 (10:55 PM CST):
No NOTAM is currently available for this location.
Forecast Area
KONL - O'Neill, Nebraska
Updated at 4:55 AM GMT on December 10, 2016 (10:55 PM CST):
No NOTAM is currently available for this location.
Aviation Weather Maps